Time;durP1;ratioP1;P1;durP2;ratioP2;P2;SDS_P1;SDS_P2;PMS_P1;PMS_P2;Temp;Humidity;BMP_temperature;BMP_pressure;BME280_temperature;BME280_humidity;BME280_pressure;Samples;Min_cycle;Max_cycle;Signal;HPM_P1;HPM_P2
2022/06/09 00:01:42;;;;;;;;;2.50;2.50;;;;;;;;4970460;28;45735;-65
2022/06/09 00:04:11;;;;;;;;;2.00;2.00;;;;;;;;4969179;28;45605;-66
2022/06/09 00:06:38;;;;;;;;;2.00;2.00;;;;;;;;4967250;28;45535;-66
2022/06/09 00:09:04;;;;;;;;;2.00;2.00;;;;;;;;4968582;28;45610;-67
2022/06/09 00:11:31;;;;;;;;;4.50;3.25;;;;;;;;4968486;28;46193;-66
2022/06/09 00:13:56;;;;;;;;;3.00;1.00;;;;;;;;4969862;28;46258;-67
2022/06/09 00:16:21;;;;;;;;;2.00;2.00;;;;;;;;4984652;28;46178;-68
2022/06/09 00:18:47;;;;;;;;;6.00;2.50;;;;;;;;4987854;28;45747;-67
2022/06/09 00:21:12;;;;;;;;;5.00;1.50;;;;;;;;4987439;28;45590;-65
2022/06/09 00:23:38;;;;;;;;;1.00;0.75;;;;;;;;4973460;28;46556;-65
2022/06/09 00:26:03;;;;;;;;;3.00;3.00;;;;;;;;4972648;28;45385;-66
2022/06/09 00:28:28;;;;;;;;;6.00;5.00;;;;;;;;4973282;28;45534;-64
2022/06/09 00:30:53;;;;;;;;;2.75;2.75;;;;;;;;4972973;28;45487;-66
2022/06/09 00:33:19;;;;;;;;;2.00;2.00;;;;;;;;4969874;28;48341;-66
2022/06/09 00:35:44;;;;;;;;;2.00;2.00;;;;;;;;4971541;28;46038;-65
2022/06/09 00:38:09;;;;;;;;;3.00;3.00;;;;;;;;4972760;28;45547;-66
2022/06/09 00:40:34;;;;;;;;;2.75;2.75;;;;;;;;4973788;28;45454;-65
2022/06/09 00:43:01;;;;;;;;;2.00;1.00;;;;;;;;4972483;28;46173;-69
2022/06/09 00:45:33;;;;;;;;;3.50;2.50;;;;;;;;4972738;28;45995;-64
2022/06/09 00:48:08;;;;;;;;;6.00;1.00;;;;;;;;4972427;28;45521;-68
2022/06/09 00:50:35;;;;;;;;;3.50;2.50;;;;;;;;4967910;28;45513;-65
2022/06/09 00:53:02;;;;;;;;;1.75;1.75;;;;;;;;5002418;28;47621;-67
2022/06/09 00:55:30;;;;;;;;;5.00;3.00;;;;;;;;4969323;28;45553;-64
2022/06/09 00:57:58;;;;;;;;;2.00;1.00;;;;;;;;4972263;28;45670;-67
2022/06/09 01:00:27;;;;;;;;;1.50;1.00;;;;;;;;4970996;28;45661;-66
2022/06/09 01:02:55;;;;;;;;;1.50;1.50;;;;;;;;4972111;28;45938;-66
2022/06/09 01:05:22;;;;;;;;;1.75;1.00;;;;;;;;4972246;28;45501;-65
2022/06/09 01:07:50;;;;;;;;;2.00;2.00;;;;;;;;5005640;28;45388;-66
2022/06/09 01:10:15;;;;;;;;;2.00;2.00;;;;;;;;5005941;28;45537;-65
2022/06/09 01:12:43;;;;;;;;;5.25;2.50;;;;;;;;4974491;28;45688;-64
2022/06/09 01:15:10;;;;;;;;;2.75;1.50;;;;;;;;4974398;28;45714;-65
2022/06/09 01:17:36;;;;;;;;;7.00;4.75;;;;;;;;4974528;28;45379;-64
2022/06/09 01:20:16;;;;;;;;;3.00;3.00;;;;;;;;4973225;28;45538;-64
2022/06/09 01:22:59;;;;;;;;;5.00;2.00;;;;;;;;5006040;28;47965;-63
2022/06/09 01:25:35;;;;;;;;;1.75;1.75;;;;;;;;4974205;28;45545;-63
2022/06/09 01:28:19;;;;;;;;;2.00;2.00;;;;;;;;4974370;28;45774;-64
2022/06/09 01:30:44;;;;;;;;;3.00;2.00;;;;;;;;4973251;28;45463;-65
2022/06/09 01:33:24;;;;;;;;;4.00;2.00;;;;;;;;5005425;28;46878;-64
2022/06/09 01:35:49;;;;;;;;;3.50;2.00;;;;;;;;4973677;28;45408;-64
2022/06/09 01:38:15;;;;;;;;;4.00;2.00;;;;;;;;4974335;28;45402;-65
2022/06/09 01:40:40;;;;;;;;;4.00;3.00;;;;;;;;4989481;28;45391;-63
2022/06/09 01:43:06;;;;;;;;;3.00;3.00;;;;;;;;4973820;28;46652;-65
2022/06/09 01:45:31;;;;;;;;;1.00;0.75;;;;;;;;4972640;28;45441;-65
2022/06/09 01:48:05;;;;;;;;;5.00;2.00;;;;;;;;4974131;28;45562;-65
2022/06/09 01:50:52;;;;;;;;;4.00;2.00;;;;;;;;4972284;28;45460;-65
2022/06/09 01:53:27;;;;;;;;;2.50;2.00;;;;;;;;4973827;28;46231;-65
2022/06/09 01:55:56;;;;;;;;;3.00;2.00;;;;;;;;4974306;28;45407;-64
2022/06/09 01:58:24;;;;;;;;;4.00;2.00;;;;;;;;4972380;28;45444;-63
2022/06/09 02:00:50;;;;;;;;;4.50;3.50;;;;;;;;4973758;28;45572;-63
2022/06/09 02:03:19;;;;;;;;;5.00;2.25;;;;;;;;4973587;28;46248;-64
2022/06/09 02:05:47;;;;;;;;;3.25;1.50;;;;;;;;4973783;28;45700;-65
2022/06/09 02:08:14;;;;;;;;;3.00;3.00;;;;;;;;4974214;28;45471;-63
2022/06/09 02:10:46;;;;;;;;;2.25;2.00;;;;;;;;4988959;28;45822;-65
2022/06/09 02:13:14;;;;;;;;;3.75;2.00;;;;;;;;4973469;28;46481;-63
2022/06/09 02:15:44;;;;;;;;;2.75;2.75;;;;;;;;4973324;28;45454;-64
2022/06/09 02:18:11;;;;;;;;;5.50;2.75;;;;;;;;4974045;28;45554;-65
2022/06/09 02:20:41;;;;;;;;;1.00;1.00;;;;;;;;5004823;28;45642;-65
2022/06/09 02:23:07;;;;;;;;;2.25;2.00;;;;;;;;4973535;28;46526;-65
2022/06/09 02:25:32;;;;;;;;;2.25;2.00;;;;;;;;5005237;28;46200;-63
2022/06/09 02:27:57;;;;;;;;;7.00;3.50;;;;;;;;4973388;28;45537;-64
2022/06/09 02:30:22;;;;;;;;;2.50;1.50;;;;;;;;4973709;28;45683;-64
2022/06/09 02:32:48;;;;;;;;;2.75;1.75;;;;;;;;4973282;28;45715;-64
2022/06/09 02:35:13;;;;;;;;;3.25;2.00;;;;;;;;4972022;28;49994;-64
2022/06/09 02:37:38;;;;;;;;;3.50;3.00;;;;;;;;4988877;28;45863;-64
2022/06/09 02:40:04;;;;;;;;;4.00;3.50;;;;;;;;4973369;28;45566;-63
2022/06/09 02:42:29;;;;;;;;;2.50;2.50;;;;;;;;4971943;28;46136;-64
2022/06/09 02:44:55;;;;;;;;;1.50;1.50;;;;;;;;4971743;28;45404;-64
2022/06/09 02:47:20;;;;;;;;;4.25;3.50;;;;;;;;4972020;28;45609;-65
2022/06/09 02:49:45;;;;;;;;;3.00;1.75;;;;;;;;4973925;28;45478;-65
2022/06/09 02:52:10;;;;;;;;;3.75;2.00;;;;;;;;5004384;28;47678;-63
2022/06/09 02:54:36;;;;;;;;;2.00;2.00;;;;;;;;4973057;28;45391;-63
2022/06/09 02:57:01;;;;;;;;;9.50;3.75;;;;;;;;4973288;28;45552;-63
2022/06/09 02:59:26;;;;;;;;;3.25;2.00;;;;;;;;4973363;28;45550;-65
2022/06/09 03:01:52;;;;;;;;;4.75;4.00;;;;;;;;4973536;28;46633;-64
2022/06/09 03:04:17;;;;;;;;;4.00;4.00;;;;;;;;4972908;28;45391;-64
2022/06/09 03:06:42;;;;;;;;;3.50;3.00;;;;;;;;4972985;28;45600;-62
2022/06/09 03:09:07;;;;;;;;;4.50;2.50;;;;;;;;4972980;28;45451;-63
2022/06/09 03:11:32;;;;;;;;;3.75;3.00;;;;;;;;4973130;28;45322;-64
2022/06/09 03:13:58;;;;;;;;;3.75;1.25;;;;;;;;4973325;28;45425;-65
2022/06/09 03:16:23;;;;;;;;;3.75;3.25;;;;;;;;4971359;28;46118;-65
2022/06/09 03:18:48;;;;;;;;;2.75;2.50;;;;;;;;4972730;28;45595;-65
2022/06/09 03:21:13;;;;;;;;;3.00;1.75;;;;;;;;4971039;28;47865;-65
2022/06/09 03:23:39;;;;;;;;;2.00;2.00;;;;;;;;4972631;28;45676;-65
2022/06/09 03:26:04;;;;;;;;;7.50;3.75;;;;;;;;4971827;28;45506;-65
2022/06/09 03:28:30;;;;;;;;;3.75;2.00;;;;;;;;4972697;28;45712;-63
2022/06/09 03:30:55;;;;;;;;;4.00;2.25;;;;;;;;5004037;28;48724;-63
2022/06/09 03:33:20;;;;;;;;;5.25;3.75;;;;;;;;4972623;28;45570;-63
2022/06/09 03:35:46;;;;;;;;;3.00;3.00;;;;;;;;4972329;28;45487;-64
2022/06/09 03:38:11;;;;;;;;;4.25;2.75;;;;;;;;4972856;28;45404;-64
2022/06/09 03:40:36;;;;;;;;;2.50;1.75;;;;;;;;4972740;28;45707;-63
2022/06/09 03:43:04;;;;;;;;;5.00;3.25;;;;;;;;4971831;28;45597;-65
2022/06/09 03:45:30;;;;;;;;;5.75;4.50;;;;;;;;4972627;28;45822;-64
2022/06/09 03:47:56;;;;;;;;;2.00;1.75;;;;;;;;4972155;28;45605;-64
2022/06/09 03:50:22;;;;;;;;;4.50;2.00;;;;;;;;4972134;28;45579;-63
2022/06/09 03:52:48;;;;;;;;;4.25;3.00;;;;;;;;4972416;28;45553;-65
2022/06/09 03:55:13;;;;;;;;;4.50;3.25;;;;;;;;4970824;28;46496;-65
2022/06/09 03:57:38;;;;;;;;;7.00;2.00;;;;;;;;4972336;28;45460;-64
2022/06/09 04:00:05;;;;;;;;;2.75;1.50;;;;;;;;4972177;28;45754;-63
2022/06/09 04:02:30;;;;;;;;;3.50;3.25;;;;;;;;4986804;28;46079;-63
2022/06/09 04:04:55;;;;;;;;;2.75;2.75;;;;;;;;4971353;28;45432;-65
2022/06/09 04:07:20;;;;;;;;;5.25;2.00;;;;;;;;4971654;28;45724;-64
2022/06/09 04:09:46;;;;;;;;;2.75;1.75;;;;;;;;4970526;28;48441;-64
2022/06/09 04:12:11;;;;;;;;;3.25;3.25;;;;;;;;4971487;28;45492;-64
2022/06/09 04:14:36;;;;;;;;;4.50;4.00;;;;;;;;4972005;28;45433;-63
2022/06/09 04:17:02;;;;;;;;;5.25;5.00;;;;;;;;4987880;28;45585;-64
2022/06/09 04:19:27;;;;;;;;;7.50;6.00;;;;;;;;4971998;28;45575;-64
2022/06/09 04:21:53;;;;;;;;;9.25;5.50;;;;;;;;4971652;28;45420;-63
2022/06/09 04:24:18;;;;;;;;;6.50;5.00;;;;;;;;4970579;28;45466;-64
2022/06/09 04:26:45;;;;;;;;;3.50;2.75;;;;;;;;4970843;28;45435;-63
2022/06/09 04:29:13;;;;;;;;;8.00;5.75;;;;;;;;4971997;28;46638;-64
2022/06/09 04:31:39;;;;;;;;;4.50;4.25;;;;;;;;4969367;28;45428;-63
2022/06/09 04:34:05;;;;;;;;;4.75;4.75;;;;;;;;4971839;28;45411;-65
2022/06/09 04:36:30;;;;;;;;;7.75;5.25;;;;;;;;4970319;28;45475;-64
2022/06/09 04:38:55;;;;;;;;;3.75;3.00;;;;;;;;4970375;28;47734;-65
2022/06/09 04:41:21;;;;;;;;;4.00;4.00;;;;;;;;4971767;28;45890;-63
2022/06/09 04:43:46;;;;;;;;;3.75;3.00;;;;;;;;4972289;28;45894;-64
2022/06/09 04:46:16;;;;;;;;;5.75;3.50;;;;;;;;4971900;28;45480;-64
2022/06/09 04:48:41;;;;;;;;;5.50;3.75;;;;;;;;4970289;28;47487;-64
2022/06/09 04:51:08;;;;;;;;;3.00;3.00;;;;;;;;4971330;28;46073;-65
2022/06/09 04:53:33;;;;;;;;;7.00;3.00;;;;;;;;4986980;28;45550;-64
2022/06/09 04:55:58;;;;;;;;;5.00;4.00;;;;;;;;4986984;28;45653;-64
2022/06/09 04:58:24;;;;;;;;;7.00;5.00;;;;;;;;4971440;28;46054;-65
2022/06/09 05:00:49;;;;;;;;;6.00;6.00;;;;;;;;4971344;28;45494;-64
2022/06/09 05:03:14;;;;;;;;;6.50;5.00;;;;;;;;4971613;28;45553;-65
2022/06/09 05:05:41;;;;;;;;;4.00;4.00;;;;;;;;5005463;28;45525;-64
2022/06/09 05:08:06;;;;;;;;;4.25;4.25;;;;;;;;4975372;28;46552;-66
2022/06/09 05:10:32;;;;;;;;;6.25;5.50;;;;;;;;4974977;28;45469;-63
2022/06/09 05:12:58;;;;;;;;;5.75;4.75;;;;;;;;4973489;28;45918;-66
2022/06/09 05:15:23;;;;;;;;;4.75;3.75;;;;;;;;4974944;28;45541;-66
2022/06/09 05:17:49;;;;;;;;;4.25;4.00;;;;;;;;4974657;28;46645;-66
2022/06/09 05:20:16;;;;;;;;;11.75;4.75;;;;;;;;4974687;28;45680;-66
2022/06/09 05:22:42;;;;;;;;;4.00;3.00;;;;;;;;4989954;28;45491;-64
2022/06/09 05:25:08;;;;;;;;;4.00;3.00;;;;;;;;4972976;28;45710;-64
2022/06/09 05:27:33;;;;;;;;;4.00;3.00;;;;;;;;4973938;28;46623;-66
2022/06/09 05:29:59;;;;;;;;;3.75;3.75;;;;;;;;4972800;28;45510;-66
2022/06/09 05:32:25;;;;;;;;;4.00;4.00;;;;;;;;4974088;28;45415;-67
2022/06/09 05:34:50;;;;;;;;;5.00;5.00;;;;;;;;4974608;28;45439;-67
2022/06/09 05:37:15;;;;;;;;;5.75;4.25;;;;;;;;4973326;28;45613;-67
2022/06/09 05:45:09;;;;;;;;;3.50;3.25;;;;;;;;4973841;28;45589;-66
2022/06/09 05:47:34;;;;;;;;;6.25;4.25;;;;;;;;4972790;28;45763;-68
2022/06/09 05:50:00;;;;;;;;;5.00;5.00;;;;;;;;4973694;28;45482;-67
2022/06/09 05:52:27;;;;;;;;;5.25;4.00;;;;;;;;4964452;28;45440;-67
2022/06/09 05:54:52;;;;;;;;;4.00;3.00;;;;;;;;4985884;28;45453;-68
2022/06/09 05:57:22;;;;;;;;;4.25;4.25;;;;;;;;4996826;28;48903;-65
2022/06/09 05:59:48;;;;;;;;;4.75;3.75;;;;;;;;4967817;28;45490;-65
2022/06/09 06:02:15;;;;;;;;;2.50;2.25;;;;;;;;4985864;28;45534;-65
2022/06/09 06:04:40;;;;;;;;;2.50;2.50;;;;;;;;4972374;28;45466;-65
2022/06/09 06:07:06;;;;;;;;;7.75;2.75;;;;;;;;4970382;28;47440;-65
2022/06/09 06:09:32;;;;;;;;;9.25;8.00;;;;;;;;5004559;28;45670;-64
2022/06/09 06:11:57;;;;;;;;;5.50;5.00;;;;;;;;4971414;28;45348;-65
2022/06/09 06:14:23;;;;;;;;;2.00;2.00;;;;;;;;4973029;28;45549;-64
2022/06/09 06:16:49;;;;;;;;;3.75;3.00;;;;;;;;4973587;28;46434;-65
2022/06/09 06:19:17;;;;;;;;;5.00;5.00;;;;;;;;4986576;28;46114;-65
2022/06/09 06:21:42;;;;;;;;;6.00;5.00;;;;;;;;4971901;28;45583;-65
2022/06/09 06:24:08;;;;;;;;;5.25;4.00;;;;;;;;4973439;28;45425;-66
2022/06/09 06:26:34;;;;;;;;;4.00;4.00;;;;;;;;4973339;28;45680;-65
2022/06/09 06:28:59;;;;;;;;;3.50;3.50;;;;;;;;4973679;28;45430;-65
2022/06/09 06:31:24;;;;;;;;;5.75;5.00;;;;;;;;5004734;28;45376;-64
2022/06/09 06:33:49;;;;;;;;;4.00;2.75;;;;;;;;4971951;28;45433;-65
2022/06/09 06:36:14;;;;;;;;;5.00;5.00;;;;;;;;4969775;28;47532;-65
2022/06/09 06:38:40;;;;;;;;;4.00;4.00;;;;;;;;4973091;28;45391;-65
2022/06/09 06:41:06;;;;;;;;;7.50;5.00;;;;;;;;4972516;28;45360;-65
2022/06/09 06:43:31;;;;;;;;;9.00;7.00;;;;;;;;4973023;28;45533;-65
2022/06/09 06:45:57;;;;;;;;;5.00;4.75;;;;;;;;4972279;28;46138;-65
2022/06/09 06:48:22;;;;;;;;;7.25;5.00;;;;;;;;4972839;28;45870;-65
2022/06/09 06:50:48;;;;;;;;;6.75;4.00;;;;;;;;4973249;28;45493;-67
2022/06/09 06:53:13;;;;;;;;;6.25;4.25;;;;;;;;4971629;28;45702;-65
2022/06/09 06:55:39;;;;;;;;;11.50;6.00;;;;;;;;4988140;28;47613;-65
2022/06/09 06:58:04;;;;;;;;;7.75;5.00;;;;;;;;4972936;28;45421;-65
2022/06/09 07:00:29;;;;;;;;;6.00;4.25;;;;;;;;5004468;28;45664;-65
2022/06/09 07:02:55;;;;;;;;;2.50;2.50;;;;;;;;4988157;28;45740;-66
2022/06/09 07:05:21;;;;;;;;;7.00;6.75;;;;;;;;4971366;28;47425;-65
2022/06/09 07:07:46;;;;;;;;;7.50;7.00;;;;;;;;4973304;28;45425;-65
2022/06/09 07:10:13;;;;;;;;;3.50;3.25;;;;;;;;4972923;28;45775;-65
2022/06/09 07:12:38;;;;;;;;;7.25;6.00;;;;;;;;4972892;28;45558;-64
2022/06/09 07:15:04;;;;;;;;;5.00;5.00;;;;;;;;4969472;28;45973;-66
2022/06/09 07:17:30;;;;;;;;;8.25;4.00;;;;;;;;4970426;28;45923;-65
2022/06/09 07:19:55;;;;;;;;;7.50;5.25;;;;;;;;4972634;28;45346;-66
2022/06/09 07:22:20;;;;;;;;;6.75;5.75;;;;;;;;4972455;28;45497;-65
2022/06/09 07:24:46;;;;;;;;;6.00;6.00;;;;;;;;4972218;28;46380;-65
2022/06/09 07:27:12;;;;;;;;;6.00;5.00;;;;;;;;4973468;28;45551;-65
2022/06/09 07:29:37;;;;;;;;;5.50;4.50;;;;;;;;4972776;28;45403;-64
2022/06/09 07:32:03;;;;;;;;;4.00;4.00;;;;;;;;4972952;28;45405;-66
2022/06/09 07:34:28;;;;;;;;;8.00;5.75;;;;;;;;4971881;28;46623;-64
2022/06/09 07:36:53;;;;;;;;;5.00;4.25;;;;;;;;4972016;28;45371;-64
2022/06/09 07:39:18;;;;;;;;;4.75;4.00;;;;;;;;4972095;28;46063;-66
2022/06/09 07:41:44;;;;;;;;;10.25;6.75;;;;;;;;4972187;28;45513;-66
2022/06/09 07:44:10;;;;;;;;;5.00;5.00;;;;;;;;4970943;28;47752;-66
2022/06/09 07:46:35;;;;;;;;;7.00;5.00;;;;;;;;4972372;28;45462;-66
2022/06/09 07:49:01;;;;;;;;;6.00;4.00;;;;;;;;4972159;28;45585;-65
2022/06/09 07:51:28;;;;;;;;;9.25;7.50;;;;;;;;4972002;28;45517;-64
2022/06/09 07:53:53;;;;;;;;;8.00;6.25;;;;;;;;4970693;28;48941;-66
2022/06/09 07:56:19;;;;;;;;;6.00;4.75;;;;;;;;4970705;28;45674;-66
2022/06/09 07:58:45;;;;;;;;;7.75;4.50;;;;;;;;4972783;28;45593;-65
2022/06/09 08:01:10;;;;;;;;;5.00;4.00;;;;;;;;4970712;28;45380;-66
2022/06/09 08:03:36;;;;;;;;;6.75;6.00;;;;;;;;4971621;28;46054;-65
2022/06/09 08:06:01;;;;;;;;;7.25;4.25;;;;;;;;4970455;28;45419;-65
2022/06/09 08:08:26;;;;;;;;;5.00;5.00;;;;;;;;4970370;28;45625;-64
2022/06/09 08:10:52;;;;;;;;;5.25;5.00;;;;;;;;4971940;28;45461;-66
2022/06/09 08:13:17;;;;;;;;;6.50;5.25;;;;;;;;4971440;28;46197;-65
2022/06/09 08:15:43;;;;;;;;;8.75;6.25;;;;;;;;5003083;28;46067;-65
2022/06/09 08:18:09;;;;;;;;;7.50;5.25;;;;;;;;4971729;28;45439;-66
2022/06/09 08:20:36;;;;;;;;;6.00;4.50;;;;;;;;4971646;28;45762;-65
2022/06/09 08:23:08;;;;;;;;;6.25;5.00;;;;;;;;4972322;28;46588;-66
2022/06/09 08:25:33;;;;;;;;;5.75;4.75;;;;;;;;5003612;28;45595;-65
2022/06/09 08:27:58;;;;;;;;;7.00;5.00;;;;;;;;4971380;28;45510;-65
2022/06/09 08:30:24;;;;;;;;;9.75;7.75;;;;;;;;4971979;28;45503;-66
2022/06/09 08:32:49;;;;;;;;;8.00;5.75;;;;;;;;5002853;28;47360;-65
2022/06/09 08:35:16;;;;;;;;;5.75;4.25;;;;;;;;4971810;28;45509;-65
2022/06/09 08:37:42;;;;;;;;;7.50;5.25;;;;;;;;4987317;28;45412;-66
2022/06/09 08:40:10;;;;;;;;;6.25;4.75;;;;;;;;4973205;28;45658;-67
2022/06/09 08:42:35;;;;;;;;;4.00;3.25;;;;;;;;4973408;28;46528;-66
2022/06/09 08:45:05;;;;;;;;;5.00;4.50;;;;;;;;5006344;28;45802;-65
2022/06/09 08:47:36;;;;;;;;;4.75;4.50;;;;;;;;4975303;28;45392;-67
2022/06/09 08:50:07;;;;;;;;;6.00;5.00;;;;;;;;4975242;28;45461;-65
2022/06/09 08:52:41;;;;;;;;;3.50;2.00;;;;;;;;5006022;28;46662;-66
2022/06/09 08:55:26;;;;;;;;;4.00;3.00;;;;;;;;4974752;28;45489;-65
2022/06/09 08:57:53;;;;;;;;;5.00;4.00;;;;;;;;4973279;28;45562;-66
2022/06/09 09:00:21;;;;;;;;;4.25;2.50;;;;;;;;5005674;28;45548;-65
2022/06/09 09:02:50;;;;;;;;;4.75;2.50;;;;;;;;4974084;28;47067;-66
2022/06/09 09:05:25;;;;;;;;;3.00;3.00;;;;;;;;4972868;28;45726;-65
2022/06/09 09:07:51;;;;;;;;;4.75;3.25;;;;;;;;4973931;28;45478;-66
2022/06/09 09:10:16;;;;;;;;;3.50;2.75;;;;;;;;4972887;28;45550;-66
2022/06/09 09:12:50;;;;;;;;;4.50;1.75;;;;;;;;4974071;28;45622;-66
2022/06/09 09:15:27;;;;;;;;;5.00;3.00;;;;;;;;4974397;28;45646;-65
2022/06/09 09:18:11;;;;;;;;;5.50;5.00;;;;;;;;4974352;28;45466;-65
2022/06/09 09:20:44;;;;;;;;;5.50;4.50;;;;;;;;4974040;28;45507;-66
2022/06/09 09:23:13;;;;;;;;;4.00;4.00;;;;;;;;4972935;28;46608;-66
2022/06/09 09:25:39;;;;;;;;;3.50;3.50;;;;;;;;4974689;28;45371;-65
2022/06/09 09:28:11;;;;;;;;;4.00;2.50;;;;;;;;4974071;28;45440;-65
2022/06/09 09:30:40;;;;;;;;;4.25;3.00;;;;;;;;4972985;28;45417;-65
2022/06/09 09:33:05;;;;;;;;;3.00;3.00;;;;;;;;4973923;28;46056;-66
2022/06/09 09:35:30;;;;;;;;;4.00;2.00;;;;;;;;4972592;28;45508;-66
2022/06/09 09:37:57;;;;;;;;;1.00;1.00;;;;;;;;4974433;28;46201;-66
2022/06/09 09:40:28;;;;;;;;;5.00;2.00;;;;;;;;4972570;28;45502;-65
2022/06/09 09:42:55;;;;;;;;;0.50;0.00;;;;;;;;4973673;28;45724;-66
2022/06/09 09:45:30;;;;;;;;;1.50;1.50;;;;;;;;4973985;28;45421;-66
2022/06/09 09:47:58;;;;;;;;;3.25;2.25;;;;;;;;4973725;28;45743;-66
2022/06/09 09:50:36;;;;;;;;;3.25;2.75;;;;;;;;4973373;28;45450;-65
2022/06/09 09:53:04;;;;;;;;;3.75;2.75;;;;;;;;5005522;28;47420;-66
2022/06/09 09:55:40;;;;;;;;;3.00;2.00;;;;;;;;4973442;28;45548;-66
2022/06/09 09:58:17;;;;;;;;;3.25;2.25;;;;;;;;4973362;28;45528;-66
2022/06/09 10:00:42;;;;;;;;;1.00;1.00;;;;;;;;4972333;28;45737;-66
2022/06/09 10:08:45;;;;;;;;;2.00;1.00;;;;;;;;4958648;28;45444;-66
2022/06/09 10:14:18;;;;;;;;;1.00;1.00;;;;;;;;4969869;28;45802;-66
2022/06/09 10:16:48;;;;;;;;;1.50;1.50;;;;;;;;4970260;28;46041;-66
2022/06/09 10:19:18;;;;;;;;;2.50;2.00;;;;;;;;4972890;28;45728;-66
2022/06/09 10:21:49;;;;;;;;;3.00;3.00;;;;;;;;4972483;28;45480;-66
2022/06/09 10:24:15;;;;;;;;;3.00;1.25;;;;;;;;4973264;28;46374;-65
2022/06/09 10:26:41;;;;;;;;;2.00;2.00;;;;;;;;4970754;28;45407;-67
2022/06/09 10:29:13;;;;;;;;;2.00;2.00;;;;;;;;4968982;28;45574;-65
2022/06/09 10:31:41;;;;;;;;;2.00;2.00;;;;;;;;4976899;28;45606;-67
2022/06/09 10:34:16;;;;;;;;;2.75;1.75;;;;;;;;5008535;28;48632;-66
2022/06/09 10:36:41;;;;;;;;;1.25;1.00;;;;;;;;4977073;28;45541;-67
2022/06/09 10:39:29;;;;;;;;;3.25;2.25;;;;;;;;5008286;28;45474;-66
2022/06/09 10:42:03;;;;;;;;;3.00;3.00;;;;;;;;4962096;28;45964;-68
2022/06/09 10:44:31;;;;;;;;;2.50;1.75;;;;;;;;4973387;28;46442;-66
2022/06/09 10:55:36;;;;;;;;;3.00;3.00;;;;;;;;4976579;28;45434;-65
2022/06/09 10:58:18;;;;;;;;;2.00;2.00;;;;;;;;5008157;28;46157;-66
2022/06/09 11:00:46;;;;;;;;;2.50;1.50;;;;;;;;4976744;28;45499;-66
2022/06/09 11:03:11;;;;;;;;;1.00;1.00;;;;;;;;4974296;28;45990;-65
2022/06/09 11:05:53;;;;;;;;;3.00;3.00;;;;;;;;4971196;28;45558;-66
2022/06/09 11:08:26;;;;;;;;;2.00;1.75;;;;;;;;5018248;28;46098;-66
2022/06/09 11:11:10;;;;;;;;;2.00;1.00;;;;;;;;4974123;28;45424;-66
2022/06/09 11:13:42;;;;;;;;;1.75;1.75;;;;;;;;4976789;28;45426;-66
2022/06/09 11:16:14;;;;;;;;;3.00;2.00;;;;;;;;4976009;28;47063;-68
2022/06/09 11:18:40;;;;;;;;;4.00;2.00;;;;;;;;5007603;28;45723;-66
2022/06/09 11:21:12;;;;;;;;;2.00;2.00;;;;;;;;4976283;28;45621;-66
2022/06/09 11:23:43;;;;;;;;;1.75;1.75;;;;;;;;4971816;28;45486;-66
2022/06/09 11:26:16;;;;;;;;;1.00;1.00;;;;;;;;4975920;28;45510;-66
2022/06/09 11:29:05;;;;;;;;;4.00;2.00;;;;;;;;4976938;28;45544;-66
2022/06/09 11:31:33;;;;;;;;;1.75;1.75;;;;;;;;4975229;28;45615;-65
2022/06/09 11:34:15;;;;;;;;;1.25;1.00;;;;;;;;4976250;28;45512;-65
2022/06/09 11:36:49;;;;;;;;;2.25;1.00;;;;;;;;4976015;28;46496;-65
2022/06/09 11:39:27;;;;;;;;;1.00;1.00;;;;;;;;4976137;28;45915;-66
2022/06/09 11:42:02;;;;;;;;;2.75;2.00;;;;;;;;4974003;28;45697;-68
2022/06/09 11:44:30;;;;;;;;;2.00;2.00;;;;;;;;4972867;28;45637;-67
2022/06/09 11:47:05;;;;;;;;;1.25;1.25;;;;;;;;4976664;28;45400;-68
2022/06/09 11:49:33;;;;;;;;;1.00;1.00;;;;;;;;4975601;28;45465;-65
2022/06/09 11:52:05;;;;;;;;;2.00;2.00;;;;;;;;4980287;28;45853;-66
2022/06/09 11:54:37;;;;;;;;;1.50;1.00;;;;;;;;4974593;28;45616;-65
2022/06/09 11:57:21;;;;;;;;;5.50;3.00;;;;;;;;4974835;28;46293;-66
2022/06/09 11:59:55;;;;;;;;;1.25;1.00;;;;;;;;4958890;28;45486;-65
2022/06/09 12:02:32;;;;;;;;;1.75;1.75;;;;;;;;4974150;28;45456;-67
2022/06/09 12:05:22;;;;;;;;;4.50;1.00;;;;;;;;4976666;28;45714;-67
2022/06/09 12:07:47;;;;;;;;;3.50;2.00;;;;;;;;4947658;28;48000;-66
2022/06/09 12:10:25;;;;;;;;;3.00;1.00;;;;;;;;4950697;28;45626;-66
2022/06/09 12:13:05;;;;;;;;;1.00;1.00;;;;;;;;4939120;28;45542;-68
2022/06/09 12:15:32;;;;;;;;;1.00;1.00;;;;;;;;4936976;28;45982;-67
2022/06/09 12:17:57;;;;;;;;;2.00;1.75;;;;;;;;4953157;28;45783;-67
2022/06/09 12:20:29;;;;;;;;;1.00;1.00;;;;;;;;4953298;28;45747;-69
2022/06/09 12:23:03;;;;;;;;;1.50;1.50;;;;;;;;4954054;28;45608;-67
2022/06/09 12:25:33;;;;;;;;;1.00;1.00;;;;;;;;4952673;28;45704;-66
2022/06/09 12:27:58;;;;;;;;;1.25;1.00;;;;;;;;4956275;28;46856;-66
2022/06/09 12:30:24;;;;;;;;;1.00;1.00;;;;;;;;4957419;28;45698;-67
2022/06/09 12:32:49;;;;;;;;;1.75;1.75;;;;;;;;4954923;28;45501;-67
2022/06/09 12:35:19;;;;;;;;;1.00;1.00;;;;;;;;4956256;28;45861;-68
2022/06/09 12:38:03;;;;;;;;;0.00;0.00;;;;;;;;4957726;28;45386;-66
2022/06/09 12:40:32;;;;;;;;;1.50;1.00;;;;;;;;4940835;28;46127;-66
2022/06/09 12:43:00;;;;;;;;;1.00;1.00;;;;;;;;4941065;28;46126;-68
2022/06/09 12:45:31;;;;;;;;;2.25;1.00;;;;;;;;4964043;28;45509;-68
2022/06/09 12:47:56;;;;;;;;;1.75;0.75;;;;;;;;4974720;28;45748;-67
2022/06/09 12:50:27;;;;;;;;;2.00;1.00;;;;;;;;4974970;28;45434;-66
2022/06/09 12:52:54;;;;;;;;;2.50;1.00;;;;;;;;4975528;28;45441;-67
2022/06/09 12:55:19;;;;;;;;;1.50;1.00;;;;;;;;4974250;28;45496;-67
2022/06/09 12:57:49;;;;;;;;;1.00;1.00;;;;;;;;4974758;28;45833;-66
2022/06/09 13:00:15;;;;;;;;;1.00;1.00;;;;;;;;4973611;28;46361;-67
2022/06/09 13:02:41;;;;;;;;;1.00;1.00;;;;;;;;4974961;28;45489;-66
2022/06/09 13:05:12;;;;;;;;;1.00;1.00;;;;;;;;4975466;28;45391;-67
2022/06/09 13:07:38;;;;;;;;;1.00;1.00;;;;;;;;4975145;28;46269;-66
2022/06/09 13:10:16;;;;;;;;;1.25;1.25;;;;;;;;4974277;28;45482;-67
2022/06/09 13:12:50;;;;;;;;;2.75;2.75;;;;;;;;4975000;28;45493;-66
2022/06/09 13:15:24;;;;;;;;;2.25;1.00;;;;;;;;4974127;28;45536;-67
2022/06/09 13:17:49;;;;;;;;;0.75;0.75;;;;;;;;4974110;28;45422;-67
2022/06/09 13:20:16;;;;;;;;;2.25;1.75;;;;;;;;4973925;28;45451;-67
2022/06/09 13:22:43;;;;;;;;;0.00;0.00;;;;;;;;4971324;28;45506;-65
2022/06/09 13:25:17;;;;;;;;;1.50;0.00;;;;;;;;4973138;28;45545;-66
2022/06/09 13:27:45;;;;;;;;;1.00;1.00;;;;;;;;4972386;28;47445;-67
2022/06/09 13:30:19;;;;;;;;;1.00;1.00;;;;;;;;4973748;28;45477;-66
2022/06/09 13:32:46;;;;;;;;;0.00;0.00;;;;;;;;4969547;28;45414;-67
2022/06/09 13:35:33;;;;;;;;;2.75;0.50;;;;;;;;4983312;28;45458;-67
2022/06/09 13:38:04;;;;;;;;;2.00;1.00;;;;;;;;4992330;28;47210;-67
2022/06/09 13:40:41;;;;;;;;;2.00;1.00;;;;;;;;4991486;28;45594;-66
2022/06/09 13:43:13;;;;;;;;;1.00;1.00;;;;;;;;4986677;28;45457;-67
2022/06/09 13:45:39;;;;;;;;;1.00;0.00;;;;;;;;4984547;28;45551;-66
2022/06/09 13:48:18;;;;;;;;;0.00;0.00;;;;;;;;4984161;28;46379;-67
2022/06/09 13:51:06;;;;;;;;;2.25;1.00;;;;;;;;4960563;28;45416;-67
2022/06/09 13:53:46;;;;;;;;;1.00;1.00;;;;;;;;4980837;28;45438;-67
2022/06/09 13:56:13;;;;;;;;;1.75;1.75;;;;;;;;4988011;28;45499;-67
2022/06/09 13:58:38;;;;;;;;;0.75;0.75;;;;;;;;4996675;28;45967;-66
2022/06/09 14:01:05;;;;;;;;;0.75;0.75;;;;;;;;4983756;28;47993;-65
2022/06/09 14:03:31;;;;;;;;;1.00;1.00;;;;;;;;4987086;28;45737;-66
2022/06/09 14:05:58;;;;;;;;;1.00;0.00;;;;;;;;5014293;28;45827;-66
2022/06/09 14:08:24;;;;;;;;;0.00;0.00;;;;;;;;4988960;28;47415;-67
2022/06/09 14:10:50;;;;;;;;;0.75;0.75;;;;;;;;4981227;28;46122;-66
2022/06/09 14:13:15;;;;;;;;;0.00;0.00;;;;;;;;4986209;28;45626;-66
2022/06/09 14:15:42;;;;;;;;;0.75;0.00;;;;;;;;4985307;28;45602;-66
2022/06/09 14:18:12;;;;;;;;;1.00;1.00;;;;;;;;4983742;28;47361;-67
2022/06/09 14:20:37;;;;;;;;;2.00;0.75;;;;;;;;5020495;28;46480;-66
2022/06/09 14:23:03;;;;;;;;;2.00;0.50;;;;;;;;4994947;28;45400;-65
2022/06/09 14:25:30;;;;;;;;;1.00;0.00;;;;;;;;4986467;28;45881;-66
2022/06/09 14:27:55;;;;;;;;;0.00;0.00;;;;;;;;4981526;28;47599;-67
2022/06/09 14:30:21;;;;;;;;;0.00;0.00;;;;;;;;4980629;28;45588;-66
2022/06/09 14:32:47;;;;;;;;;0.00;0.00;;;;;;;;4988971;28;45679;-66
2022/06/09 14:35:16;;;;;;;;;0.25;0.25;;;;;;;;4982857;28;45528;-66
2022/06/09 14:37:42;;;;;;;;;1.25;0.75;;;;;;;;4987223;28;47799;-66
2022/06/09 14:40:20;;;;;;;;;1.00;0.50;;;;;;;;4980939;28;45469;-67
2022/06/09 14:42:46;;;;;;;;;1.00;1.00;;;;;;;;5006285;28;45868;-67
2022/06/09 14:45:12;;;;;;;;;0.00;0.00;;;;;;;;4987240;28;45638;-66
2022/06/09 14:47:37;;;;;;;;;0.75;0.75;;;;;;;;4979526;28;46067;-68
2022/06/09 14:50:03;;;;;;;;;0.00;0.00;;;;;;;;4990586;28;45882;-66
2022/06/09 14:52:28;;;;;;;;;0.00;0.00;;;;;;;;4979972;28;45467;-66
2022/06/09 14:54:54;;;;;;;;;1.00;0.75;;;;;;;;4987154;28;45467;-67
2022/06/09 14:57:19;;;;;;;;;1.00;1.00;;;;;;;;4986738;28;46150;-66
2022/06/09 14:59:45;;;;;;;;;0.50;0.25;;;;;;;;4980362;28;45695;-66
2022/06/09 15:02:15;;;;;;;;;1.00;1.00;;;;;;;;5022472;28;45891;-66
2022/06/09 15:04:40;;;;;;;;;0.25;0.25;;;;;;;;4979021;28;45451;-66
2022/06/09 15:07:05;;;;;;;;;1.00;0.00;;;;;;;;4985192;28;47356;-65
2022/06/09 15:09:32;;;;;;;;;1.00;0.75;;;;;;;;4985741;28;45391;-64
2022/06/09 15:11:57;;;;;;;;;1.00;0.00;;;;;;;;4981796;28;45999;-66